createdAt,value
2019-04-01T00:02:01.678Z,70.10
2019-04-01T00:04:29.450Z,69.90
2019-04-01T00:06:57.250Z,69.40
2019-04-01T00:09:25.031Z,69.90
2019-04-01T00:11:52.799Z,69.70
2019-04-01T00:14:20.540Z,69.70
2019-04-01T00:16:48.314Z,69.50
2019-04-01T00:19:16.292Z,68.90
2019-04-01T00:21:44.758Z,69.50
2019-04-01T00:24:12.791Z,68.90
2019-04-01T00:26:40.645Z,68.70
2019-04-01T00:29:08.600Z,68.80
2019-04-01T00:31:36.382Z,68.80
2019-04-01T00:34:04.271Z,69.60
2019-04-01T00:36:32.065Z,70.10
2019-04-01T00:38:59.912Z,71.00
2019-04-01T00:41:27.692Z,71.60
2019-04-01T00:43:57.674Z,71.80
2019-04-01T00:46:25.630Z,72.00
2019-04-01T00:48:53.394Z,72.10
2019-04-01T00:51:40.663Z,71.90
2019-04-01T00:54:08.425Z,73.00
2019-04-01T00:56:36.180Z,72.60
2019-04-01T00:59:03.959Z,72.70
2019-04-01T01:01:31.724Z,73.00
2019-04-01T01:03:59.526Z,73.00
2019-04-01T01:06:27.455Z,73.10
2019-04-01T01:08:55.276Z,73.10
2019-04-01T01:11:23.094Z,73.10
2019-04-01T01:13:50.874Z,73.10
2019-04-01T01:16:18.629Z,73.60
2019-04-01T01:18:46.381Z,73.70
2019-04-01T01:21:14.164Z,74.10
2019-04-01T01:23:41.864Z,75.00
2019-04-01T01:26:09.662Z,75.40
2019-04-01T01:28:37.440Z,74.40
2019-04-01T01:31:05.439Z,73.80
2019-04-01T01:33:33.169Z,74.00
2019-04-01T01:36:00.943Z,74.50
2019-04-01T01:38:28.693Z,74.30
2019-04-01T01:40:56.782Z,73.60
2019-04-01T01:43:24.548Z,74.80
2019-04-01T01:45:52.417Z,74.80
2019-04-01T01:48:20.178Z,75.10
2019-04-01T01:50:48.221Z,75.50
2019-04-01T01:53:15.971Z,75.50
2019-04-01T01:55:43.751Z,75.80
2019-04-01T01:58:11.732Z,75.80
2019-04-01T02:00:40.887Z,76.00
2019-04-01T02:03:08.675Z,76.00
2019-04-01T02:05:36.482Z,76.10
2019-04-01T02:08:04.201Z,76.20
2019-04-01T02:10:31.958Z,76.30
2019-04-01T02:12:59.737Z,76.10
2019-04-01T02:15:27.513Z,76.30
2019-04-01T02:17:55.275Z,76.00
2019-04-01T02:20:23.019Z,76.00
2019-04-01T02:22:50.759Z,75.80
2019-04-01T02:25:18.533Z,75.80
2019-04-01T02:27:46.313Z,75.70
2019-04-01T02:30:14.279Z,76.20
2019-04-01T02:32:42.069Z,75.20
2019-04-01T02:35:09.918Z,75.70
2019-04-01T02:37:37.651Z,75.20
2019-04-01T02:40:06.046Z,75.50
2019-04-01T02:42:33.826Z,75.80
2019-04-01T02:45:02.796Z,75.60
2019-04-01T02:47:30.575Z,75.70
2019-04-01T02:49:58.550Z,76.10
2019-04-01T02:52:26.355Z,76.00
2019-04-01T02:54:54.093Z,75.80
2019-04-01T02:57:21.842Z,75.70
2019-04-01T02:59:54.824Z,75.60
2019-04-01T03:02:22.631Z,75.50
2019-04-01T03:04:50.490Z,75.70
2019-04-01T03:07:18.309Z,76.10
2019-04-01T03:09:46.158Z,75.50
2019-04-01T03:12:14.063Z,75.70
2019-04-01T03:14:42.046Z,75.10
2019-04-01T03:17:09.768Z,75.00
2019-04-01T03:19:37.970Z,75.20
2019-04-01T03:22:05.741Z,75.30
2019-04-01T03:24:33.527Z,76.00
2019-04-01T03:27:01.345Z,75.00
2019-04-01T03:29:29.191Z,75.40
2019-04-01T03:31:56.978Z,75.00
2019-04-01T03:34:24.769Z,74.80
2019-04-01T03:36:52.694Z,74.80
2019-04-01T03:39:20.561Z,74.80
2019-04-01T03:41:48.348Z,75.00
2019-04-01T03:44:16.144Z,74.70
2019-04-01T03:46:43.936Z,74.50
2019-04-01T03:49:11.773Z,74.40
2019-04-01T03:51:39.706Z,74.80
2019-04-01T03:54:07.516Z,74.50
2019-04-01T03:56:35.243Z,73.90
2019-04-01T03:59:03.024Z,73.70
2019-04-01T04:01:30.916Z,73.40
2019-04-01T04:03:58.801Z,73.50
2019-04-01T04:06:26.641Z,73.10
2019-04-01T04:08:54.413Z,73.40
2019-04-01T04:11:22.139Z,73.80
2019-04-01T04:13:49.953Z,74.10
2019-04-01T04:16:18.894Z,74.60
2019-04-01T04:18:46.645Z,74.60
2019-04-01T04:21:14.427Z,75.00
2019-04-01T04:23:42.220Z,74.80
2019-04-01T04:26:09.985Z,75.00
2019-04-01T04:28:37.814Z,75.20
2019-04-01T04:31:06.001Z,74.80
2019-04-01T04:33:33.790Z,74.90
2019-04-01T04:36:01.531Z,74.90
2019-04-01T04:38:29.362Z,74.70
2019-04-01T04:40:57.436Z,75.10
2019-04-01T04:43:25.231Z,74.80
2019-04-01T04:45:53.067Z,75.00
2019-04-01T04:48:20.878Z,75.20
2019-04-01T04:50:48.671Z,74.60
2019-04-01T04:53:16.480Z,74.70
2019-04-01T04:55:44.259Z,74.60
2019-04-01T04:58:12.025Z,73.60
2019-04-01T05:00:39.800Z,73.90
2019-04-01T05:03:07.599Z,73.60
2019-04-01T05:05:35.422Z,73.80
2019-04-01T05:08:03.211Z,73.70
2019-04-01T05:10:31.036Z,73.80
2019-04-01T05:12:58.835Z,73.90
2019-04-01T05:15:26.640Z,73.50
2019-04-01T05:17:54.631Z,73.40
2019-04-01T05:20:22.585Z,74.00
2019-04-01T05:22:50.947Z,73.10
2019-04-01T05:25:18.756Z,73.00
2019-04-01T05:27:49.029Z,72.40
2019-04-01T05:30:17.314Z,72.00
2019-04-01T05:32:47.298Z,71.90
2019-04-01T05:35:15.109Z,71.10
2019-04-01T05:37:42.883Z,70.50
2019-04-01T05:40:11.953Z,70.30
2019-04-01T05:42:39.755Z,70.00
2019-04-01T05:45:08.036Z,69.30
2019-04-01T05:47:40.374Z,68.20
2019-04-01T05:50:08.225Z,67.20
2019-04-01T05:52:35.969Z,67.30
2019-04-01T05:55:04.434Z,67.40
2019-04-01T05:57:32.226Z,66.80
2019-04-01T06:00:01.128Z,65.80
2019-04-01T06:02:28.850Z,64.30
2019-04-01T06:04:56.708Z,62.70
2019-04-01T06:07:24.456Z,59.00
2019-04-01T06:09:52.364Z,54.60
2019-04-01T06:12:24.037Z,52.90
2019-04-01T06:14:50.658Z,49.60
2019-04-01T06:17:18.578Z,49.30
2019-04-01T06:19:46.451Z,46.70
2019-04-01T06:22:14.416Z,45.00
2019-04-01T06:24:42.214Z,42.50
2019-04-01T06:27:10.363Z,42.00
2019-04-01T06:29:38.757Z,40.40
2019-04-01T06:32:06.515Z,41.00
2019-04-01T06:34:34.308Z,39.20
2019-04-01T06:37:02.046Z,38.30
2019-04-01T06:39:30.089Z,37.20
2019-04-01T06:41:57.868Z,35.50
2019-04-01T06:44:25.713Z,33.80
2019-04-01T06:46:53.516Z,31.60
2019-04-01T06:49:22.551Z,31.90
2019-04-01T06:51:50.355Z,32.20
2019-04-01T06:54:18.164Z,30.80
2019-04-01T06:56:45.954Z,29.90
2019-04-01T06:59:13.819Z,29.70
2019-04-01T07:01:41.651Z,28.40
2019-04-01T07:04:11.499Z,28.30
2019-04-01T07:06:39.309Z,26.70
2019-04-01T07:09:07.048Z,26.20
2019-04-01T07:11:34.933Z,26.00
2019-04-01T07:14:04.320Z,25.10
2019-04-01T07:16:32.131Z,25.10
2019-04-01T07:18:59.901Z,24.80
2019-04-01T07:21:27.679Z,24.90
2019-04-01T07:23:55.550Z,24.90
2019-04-01T07:26:23.332Z,23.60
2019-04-01T07:28:51.163Z,23.50
2019-04-01T07:31:19.036Z,23.20
2019-04-01T07:33:47.076Z,22.70
2019-04-01T07:36:14.914Z,23.40
2019-04-01T07:38:42.631Z,23.50
2019-04-01T07:41:10.865Z,22.70
2019-04-01T07:43:38.672Z,23.00
2019-04-01T07:46:08.181Z,22.80
2019-04-01T07:48:36.335Z,21.90
2019-04-01T07:51:07.088Z,22.40
2019-04-01T07:53:34.193Z,22.20
2019-04-01T07:56:02.893Z,21.70
2019-04-01T07:58:30.698Z,21.80
2019-04-01T08:00:58.672Z,22.30
2019-04-01T08:03:26.463Z,22.30
2019-04-01T08:05:54.250Z,21.80
2019-04-01T08:08:22.074Z,20.60
2019-04-01T08:10:50.024Z,20.10
2019-04-01T08:13:17.812Z,20.20
2019-04-01T08:15:45.698Z,20.90
2019-04-01T08:18:13.611Z,19.60
2019-04-01T08:20:41.406Z,19.40
2019-04-01T08:23:09.286Z,18.70
2019-04-01T08:25:37.052Z,19.10
2019-04-01T08:28:04.949Z,18.70
2019-04-01T08:30:32.739Z,18.60
2019-04-01T08:33:00.567Z,18.80
2019-04-01T08:35:28.845Z,18.80
2019-04-01T08:37:56.677Z,18.30
2019-04-01T08:40:24.409Z,17.80
2019-04-01T08:42:52.154Z,18.10
2019-04-01T08:45:19.938Z,18.00
2019-04-01T08:47:47.787Z,18.10
2019-04-01T08:50:16.288Z,18.50
2019-04-01T08:52:44.074Z,17.30
2019-04-01T08:55:11.886Z,17.70
2019-04-01T08:57:39.803Z,17.40
2019-04-01T09:00:08.194Z,18.20
2019-04-01T09:02:35.987Z,18.30
2019-04-01T09:05:04.885Z,18.20
2019-04-01T09:07:32.794Z,17.80
2019-04-01T09:10:01.238Z,17.50
2019-04-01T09:12:29.388Z,17.10
2019-04-01T09:14:57.647Z,17.20
2019-04-01T09:17:25.450Z,17.00
2019-04-01T09:19:53.549Z,16.50
2019-04-01T09:22:21.374Z,16.60
2019-04-01T09:24:49.119Z,16.60
2019-04-01T09:27:16.996Z,16.60
2019-04-01T09:29:44.908Z,16.90
2019-04-01T09:32:12.779Z,16.70
2019-04-01T09:34:40.572Z,16.60
2019-04-01T09:37:08.409Z,16.10
2019-04-01T09:39:36.260Z,17.30
2019-04-01T09:42:05.354Z,17.20
2019-04-01T09:44:36.987Z,17.60
2019-04-01T09:47:02.805Z,17.50
2019-04-01T09:49:30.758Z,17.50
2019-04-01T09:51:58.614Z,17.60
2019-04-01T09:54:26.435Z,18.50
2019-04-01T09:56:54.220Z,18.50
2019-04-01T09:59:22.122Z,17.80
2019-04-01T10:01:49.862Z,19.00
2019-04-01T10:04:37.154Z,21.30
2019-04-01T10:07:04.882Z,22.40
2019-04-01T10:09:32.814Z,23.70
2019-04-01T10:12:00.581Z,24.50
2019-04-01T10:14:28.352Z,24.30
2019-04-01T10:16:56.165Z,25.80
2019-04-01T10:19:24.113Z,26.20
2019-04-01T10:21:51.931Z,26.20
2019-04-01T10:24:19.720Z,26.60
2019-04-01T10:26:47.518Z,24.80
2019-04-01T10:29:15.325Z,23.90
2019-04-01T10:31:43.248Z,22.40
2019-04-01T10:34:11.073Z,21.00
2019-04-01T10:36:38.853Z,20.30
2019-04-01T10:39:07.120Z,19.20
2019-04-01T10:41:34.965Z,18.70
2019-04-01T10:44:04.888Z,19.10
2019-04-01T10:46:32.660Z,17.80
2019-04-01T10:49:00.556Z,16.80
2019-04-01T10:51:28.421Z,17.80
2019-04-01T10:53:56.213Z,17.70
2019-04-01T10:56:23.989Z,17.50
2019-04-01T10:58:51.881Z,16.50
2019-04-01T11:01:19.792Z,16.30
2019-04-01T11:03:47.483Z,16.60
2019-04-01T11:06:15.352Z,16.70
2019-04-01T11:08:45.182Z,16.10
2019-04-01T11:11:13.116Z,15.80
2019-04-01T11:13:40.926Z,15.50
2019-04-01T11:16:08.754Z,16.20
2019-04-01T11:18:36.560Z,15.50
2019-04-01T11:21:05.108Z,15.70
2019-04-01T11:23:33.893Z,14.90
2019-04-01T11:26:01.971Z,15.30
2019-04-01T11:28:29.826Z,13.80
2019-04-01T11:30:57.629Z,14.50
2019-04-01T11:33:25.368Z,14.70
2019-04-01T11:35:53.246Z,13.70
2019-04-01T11:38:21.045Z,14.00
2019-04-01T11:40:49.016Z,13.90
2019-04-01T11:43:16.782Z,13.40
2019-04-01T11:45:44.614Z,13.70
2019-04-01T11:48:12.404Z,13.20
2019-04-01T11:50:47.713Z,14.30
2019-04-01T11:53:15.041Z,15.00
2019-04-01T11:55:42.974Z,14.80
2019-04-01T11:58:10.760Z,14.20
2019-04-01T12:00:38.527Z,13.80
2019-04-01T12:03:06.297Z,14.00
2019-04-01T12:05:34.111Z,13.60
2019-04-01T12:08:01.888Z,14.00
2019-04-01T12:10:29.866Z,12.80
2019-04-01T12:12:57.709Z,12.90
2019-04-01T12:15:25.511Z,12.80
2019-04-01T12:17:53.279Z,13.40
2019-04-01T12:20:21.074Z,12.60
2019-04-01T12:22:48.825Z,13.70
2019-04-01T12:25:16.646Z,13.70
2019-04-01T12:27:47.239Z,13.30
2019-04-01T12:30:15.128Z,13.50
2019-04-01T12:32:42.854Z,13.60
2019-04-01T12:35:12.175Z,11.70
2019-04-01T12:37:39.912Z,11.80
2019-04-01T12:40:08.210Z,11.70
2019-04-01T12:42:36.042Z,11.60
2019-04-01T12:45:05.201Z,12.00
2019-04-01T12:47:32.976Z,12.70
2019-04-01T12:50:00.920Z,12.30
2019-04-01T12:52:28.710Z,12.60
2019-04-01T12:54:56.557Z,11.80
2019-04-01T12:57:24.334Z,12.60
2019-04-01T12:59:53.450Z,12.90
2019-04-01T13:02:21.615Z,12.50
2019-04-01T13:04:51.406Z,12.60
2019-04-01T13:07:19.954Z,12.40
2019-04-01T13:09:48.532Z,12.40
2019-04-01T13:12:17.795Z,12.50
2019-04-01T13:14:45.747Z,12.30
2019-04-01T13:17:13.641Z,11.90
2019-04-01T13:19:41.479Z,12.20
2019-04-01T13:22:09.494Z,13.00
2019-04-01T13:24:37.325Z,12.80
2019-04-01T13:27:08.974Z,12.80
2019-04-01T13:29:35.079Z,13.10
2019-04-01T13:32:02.973Z,13.30
2019-04-01T13:34:30.845Z,12.60
2019-04-01T13:36:58.691Z,13.20
2019-04-01T13:39:26.627Z,13.50
2019-04-01T13:41:56.302Z,13.30
2019-04-01T13:44:36.013Z,13.30
2019-04-01T13:46:55.936Z,13.20
2019-04-01T13:49:23.784Z,13.10
2019-04-01T13:51:51.622Z,13.10
2019-04-01T13:54:19.461Z,12.70
2019-04-01T13:56:47.318Z,13.80
2019-04-01T13:59:17.491Z,13.40
2019-04-01T14:01:44.953Z,14.10
2019-04-01T14:04:12.738Z,14.00
2019-04-01T14:06:40.600Z,14.40
2019-04-01T14:09:08.631Z,14.00
2019-04-01T14:11:36.451Z,14.40
2019-04-01T14:14:04.395Z,13.70
2019-04-01T14:16:32.229Z,14.00
2019-04-01T14:19:00.031Z,14.30
2019-04-01T14:21:27.864Z,14.10
2019-04-01T14:23:55.686Z,13.80
2019-04-01T14:26:23.511Z,14.70
2019-04-01T14:28:51.273Z,14.70
2019-04-01T14:31:19.482Z,14.80
2019-04-01T14:33:47.379Z,14.90
2019-04-01T14:36:15.253Z,15.20
2019-04-01T14:38:43.038Z,15.00
2019-04-01T14:41:12.813Z,15.20
2019-04-01T14:43:40.702Z,15.60
2019-04-01T14:46:08.508Z,15.10
2019-04-01T14:48:36.329Z,15.10
2019-04-01T14:51:04.374Z,15.20
2019-04-01T14:53:32.127Z,14.30
2019-04-01T14:55:59.898Z,14.60
2019-04-01T14:58:27.704Z,15.50
2019-04-01T15:00:55.491Z,15.60
2019-04-01T15:03:23.290Z,15.70
2019-04-01T15:05:51.367Z,16.10
2019-04-01T15:08:19.400Z,16.20
2019-04-01T15:10:47.592Z,16.80
2019-04-01T15:13:15.371Z,16.10
2019-04-01T15:15:43.157Z,17.10
2019-04-01T15:18:10.896Z,18.50
2019-04-01T15:20:38.724Z,18.20
2019-04-01T15:23:06.561Z,18.70
2019-04-01T15:25:34.548Z,18.60
2019-04-01T15:28:02.487Z,18.40
2019-04-01T15:30:32.052Z,18.10
2019-04-01T15:33:00.290Z,18.30
2019-04-01T15:35:28.096Z,18.20
2019-04-01T15:37:55.884Z,18.20
2019-04-01T15:40:24.147Z,18.00
2019-04-01T15:42:51.931Z,18.00
2019-04-01T15:45:19.814Z,18.00
2019-04-01T15:47:47.618Z,17.90
2019-04-01T15:50:27.686Z,18.50
2019-04-01T15:52:45.172Z,18.70
2019-04-01T15:55:13.022Z,17.90
2019-04-01T15:57:40.807Z,19.20
2019-04-01T16:00:10.527Z,19.10
2019-04-01T16:02:38.297Z,20.40
2019-04-01T16:05:06.410Z,20.20
2019-04-01T16:07:34.216Z,20.20
2019-04-01T16:10:02.281Z,20.30
2019-04-01T16:12:30.121Z,21.60
2019-04-01T16:14:57.958Z,21.50
2019-04-01T16:17:25.757Z,21.70
2019-04-01T16:19:53.768Z,22.70
2019-04-01T16:22:22.063Z,22.80
2019-04-01T16:24:50.210Z,23.30
2019-04-01T16:27:18.006Z,23.40
2019-04-01T16:29:46.039Z,22.70
2019-04-01T16:32:13.841Z,23.60
2019-04-01T16:34:42.337Z,23.70
2019-04-01T16:37:10.227Z,24.00
2019-04-01T16:39:38.013Z,24.70
2019-04-01T16:42:05.849Z,24.50
2019-04-01T16:44:33.683Z,25.30
2019-04-01T16:47:01.488Z,25.20
2019-04-01T16:49:29.302Z,26.00
2019-04-01T16:51:57.113Z,26.60
2019-04-01T16:54:24.901Z,26.60
2019-04-01T16:56:52.667Z,26.60
2019-04-01T16:59:20.467Z,26.60
2019-04-01T17:01:48.279Z,27.10
2019-04-01T17:04:17.083Z,27.10
2019-04-01T17:06:45.051Z,27.60
2019-04-01T17:09:13.004Z,27.90
2019-04-01T17:11:40.834Z,27.70
2019-04-01T17:14:09.259Z,27.90
2019-04-01T17:16:37.728Z,28.20
2019-04-01T17:19:05.547Z,28.60
2019-04-01T17:21:34.074Z,28.90
2019-04-01T17:24:02.152Z,29.20
2019-04-01T17:26:29.937Z,29.30
2019-04-01T17:28:57.731Z,29.60
2019-04-01T17:31:25.626Z,29.60
2019-04-01T17:33:53.425Z,29.60
2019-04-01T17:36:21.259Z,30.10
2019-04-01T17:38:49.102Z,30.40
2019-04-01T17:41:18.094Z,31.00
2019-04-01T17:43:46.392Z,31.00
2019-04-01T17:46:14.867Z,31.70
2019-04-01T17:48:43.268Z,31.60
2019-04-01T17:51:11.843Z,31.60
2019-04-01T17:53:40.439Z,31.50
2019-04-01T17:56:09.679Z,31.40
2019-04-01T17:58:38.969Z,31.10
2019-04-01T18:01:10.554Z,31.20
2019-04-01T18:03:42.838Z,31.30
2019-04-01T18:06:11.400Z,31.50
2019-04-01T18:08:40.246Z,32.20
2019-04-01T18:11:08.457Z,32.60
2019-04-01T18:13:36.259Z,32.70
2019-04-01T18:16:04.058Z,32.90
2019-04-01T18:18:34.082Z,33.10
2019-04-01T18:21:03.312Z,33.40
2019-04-01T18:23:31.563Z,33.50
2019-04-01T18:25:59.364Z,33.60
2019-04-01T18:28:27.715Z,33.60
2019-04-01T18:30:56.445Z,34.00
2019-04-01T18:33:24.972Z,34.30
2019-04-01T18:35:54.269Z,34.30
2019-04-01T18:38:25.001Z,34.40
2019-04-01T18:40:53.204Z,34.40
2019-04-01T18:43:21.041Z,34.40
2019-04-01T18:45:48.841Z,35.00
2019-04-01T18:48:16.756Z,35.00
2019-04-01T18:50:49.630Z,35.40
2019-04-01T18:53:17.411Z,36.20
2019-04-01T18:55:45.260Z,36.10
2019-04-01T18:58:15.333Z,36.60
2019-04-01T19:00:43.289Z,36.90
2019-04-01T19:03:11.178Z,37.40
2019-04-01T19:05:39.265Z,37.40
2019-04-01T19:08:07.099Z,38.00
2019-04-01T19:10:34.992Z,38.20
2019-04-01T19:13:06.538Z,38.50
2019-04-01T19:15:33.280Z,38.70
2019-04-01T19:18:01.681Z,39.50
2019-04-01T19:20:30.528Z,39.00
2019-04-01T19:22:58.472Z,39.90
2019-04-01T19:25:26.345Z,39.70
2019-04-01T19:27:54.230Z,39.90
2019-04-01T19:30:22.252Z,39.80
2019-04-01T19:32:50.015Z,40.30
2019-04-01T19:35:17.830Z,40.30
2019-04-01T19:37:45.675Z,40.10
2019-04-01T19:40:13.955Z,40.70
2019-04-01T19:42:41.755Z,41.40
2019-04-01T19:45:11.919Z,42.10
2019-04-01T19:47:40.222Z,42.50
2019-04-01T19:50:08.641Z,42.90
2019-04-01T19:52:36.459Z,43.10
2019-04-01T19:55:04.514Z,43.50
2019-04-01T19:57:32.306Z,43.50
2019-04-01T20:00:00.100Z,43.70
2019-04-01T20:02:27.855Z,43.90
2019-04-01T20:04:55.787Z,44.40
2019-04-01T20:07:26.210Z,44.50
2019-04-01T20:09:54.037Z,44.80
2019-04-01T20:12:21.840Z,44.80
2019-04-01T20:14:50.191Z,45.20
2019-04-01T20:17:18.006Z,45.00
2019-04-01T20:19:45.803Z,45.10
2019-04-01T20:22:13.600Z,45.70
2019-04-01T20:24:41.520Z,45.50
2019-04-01T20:27:12.282Z,45.50
2019-04-01T20:29:40.289Z,45.30
2019-04-01T20:32:17.068Z,45.80
2019-04-01T20:34:38.154Z,46.00
2019-04-01T20:37:09.188Z,46.10
2019-04-01T20:39:36.906Z,47.10
2019-04-01T20:42:07.222Z,46.90
2019-04-01T20:44:34.569Z,47.10
2019-04-01T20:47:02.398Z,47.90
2019-04-01T20:49:30.299Z,48.70
2019-04-01T20:51:58.344Z,49.30
2019-04-01T20:54:30.416Z,49.10
2019-04-01T20:56:58.202Z,50.10
2019-04-01T20:59:26.003Z,50.10
2019-04-01T21:01:53.780Z,50.00
2019-04-01T21:04:21.617Z,50.00
2019-04-01T21:06:50.196Z,50.00
2019-04-01T21:09:18.432Z,49.90
2019-04-01T21:11:46.248Z,50.60
2019-04-01T21:14:14.033Z,50.90
2019-04-01T21:16:41.798Z,51.50
2019-04-01T21:19:09.725Z,51.50
2019-04-01T21:21:39.210Z,51.80
2019-04-01T21:24:07.214Z,52.30
2019-04-01T21:26:35.033Z,52.30
2019-04-01T21:29:03.036Z,52.80
2019-04-01T21:31:30.824Z,52.60
2019-04-01T21:33:58.581Z,52.60
2019-04-01T21:36:26.416Z,53.00
2019-04-01T21:38:54.223Z,52.90
2019-04-01T21:41:21.998Z,53.10
2019-04-01T21:43:49.814Z,53.40
2019-04-01T21:46:18.500Z,53.40
2019-04-01T21:48:46.292Z,53.40
2019-04-01T21:51:14.561Z,53.50
2019-04-01T21:53:42.340Z,53.70
2019-04-01T21:56:10.097Z,54.40
2019-04-01T21:58:37.909Z,54.30
2019-04-01T22:01:05.731Z,54.40
2019-04-01T22:03:33.748Z,54.30
2019-04-01T22:06:01.509Z,55.00
2019-04-01T22:08:29.272Z,54.80
2019-04-01T22:10:57.077Z,55.10
2019-04-01T22:13:24.885Z,54.70
2019-04-01T22:15:52.686Z,55.00
2019-04-01T22:18:20.477Z,55.30
2019-04-01T22:20:48.274Z,55.40
2019-04-01T22:23:16.090Z,55.70
2019-04-01T22:25:43.928Z,55.90
2019-04-01T22:28:11.685Z,56.10
2019-04-01T22:30:39.536Z,56.30
2019-04-01T22:33:07.314Z,56.10
2019-04-01T22:35:39.001Z,56.40
2019-04-01T22:38:06.213Z,56.50
2019-04-01T22:40:34.601Z,56.70
2019-04-01T22:43:02.408Z,56.80
2019-04-01T22:45:30.242Z,56.90
2019-04-01T22:47:58.030Z,57.20
2019-04-01T22:50:25.905Z,57.30
2019-04-01T22:52:53.751Z,57.50
2019-04-01T22:55:21.577Z,57.90
2019-04-01T22:57:49.382Z,58.20
2019-04-01T23:00:17.469Z,58.20
2019-04-01T23:02:46.237Z,58.60
2019-04-01T23:05:13.981Z,58.60
2019-04-01T23:07:41.745Z,58.60
2019-04-01T23:10:10.419Z,58.60
2019-04-01T23:12:38.263Z,58.60
2019-04-01T23:15:07.237Z,58.50
2019-04-01T23:17:35.065Z,58.50
2019-04-01T23:20:03.880Z,58.40
2019-04-01T23:22:31.840Z,58.40
2019-04-01T23:24:59.614Z,58.40
2019-04-01T23:27:27.334Z,58.40
2019-04-01T23:29:55.419Z,58.60
2019-04-01T23:32:23.261Z,58.70
2019-04-01T23:34:51.053Z,59.50
2019-04-01T23:37:18.817Z,59.40
2019-04-01T23:39:46.571Z,59.70
2019-04-01T23:42:14.356Z,59.80
2019-04-01T23:44:42.160Z,59.70
2019-04-01T23:47:09.921Z,59.80
2019-04-01T23:49:37.731Z,59.80
2019-04-01T23:52:05.892Z,59.80
2019-04-01T23:54:33.818Z,59.90
2019-04-01T23:57:01.538Z,60.30
2019-04-01T23:59:29.284Z,60.30
